Aérodrome :
LOGIN :

S'inscrire | Disclaimer

   EN    FR    IT 

 










Légende :    VFR   VFR Marginal   IFR   IFR Intensif   IFR Très Intensif
Visi : 
Plafond : 
>= 8 km
>= 3000ft
5 à 8 km
1000 à 3000 ft
1500m à 5 km
500 à 1000 ft
800 à 1500m
200 à 500 ft
< 800m
< 200 ft
Symboles :   Orages  Brouillard  Fortes neiges  Fortes précipitations  Vent > 20 kt
SIGMETs :   Divers  Orages  Givrage  Turbulence  Onde Orograph.  Cendres Volcan.







- Altitude de l'aérodrome : 935 ft


EBFS - Florennes

DERNIER METAR :
  • 230855Z 05006KT 9999 SCT300 21/12 Q1026 BLU BLU

METARs EXPIRÉS :
  • 230825Z 08005KT 9999 SCT300 20/11 Q1026 BLU BLU
  • 230755Z 07005KT 9999 FEW300 18/12 Q1026 BLU BLU
  • 230725Z 05003KT 9999 FEW300 17/12 Q1026 BLU BLU
  • 230655Z 05004KT 9999 FEW300 15/12 Q1026 BLU BLU
  • 230625Z VRB02KT 9999 FEW300 14/11 Q1026 BLU BLU

TAF TAF EBFS
Valide du 23 à 07h jusqu'au 23 à 16h UTC


230541Z 2307/2316 05006KT 9999 FEW300
BECMG 2309/2311 FEW030 SCT300
Pas de NOTAMs connus pour ce terrain.



MET'MAP, la Météo Aéronautique d'un coup d'oeil ! - Copyright ORBIFLY Décembre 2007 - Disclaimer

ORBIFLY MET'MAP TEAM :

Programmation & Développement : Alexandra Zaïnal
Conception & Développement : Baudouin d'Aumeries
Co-Programmation & Développement : Marc-Olivier Méhu
Soutien technique & logistique : Manuel Goepfert

Contact : metmap@orbifly.com




SOURCES & CREDITS :

   NOAA